sensor_id;sensor_type;location;lat;lon;timestamp;temperature;humidity
2611;DHT22;5612;51.134;17.058;2023-04-06T00:01:03;0.80;99.90
2611;DHT22;5612;51.134;17.058;2023-04-06T00:03:32;0.80;99.90
2611;DHT22;5612;51.134;17.058;2023-04-06T00:06:01;0.70;99.90
2611;DHT22;5612;51.134;17.058;2023-04-06T00:08:29;0.70;99.90
2611;DHT22;5612;51.134;17.058;2023-04-06T00:10:58;0.70;99.90
2611;DHT22;5612;51.134;17.058;2023-04-06T00:13:27;0.70;99.90
2611;DHT22;5612;51.134;17.058;2023-04-06T00:15:57;0.70;99.90
2611;DHT22;5612;51.134;17.058;2023-04-06T00:18:26;0.70;99.90
2611;DHT22;5612;51.134;17.058;2023-04-06T00:20:55;0.70;99.90
2611;DHT22;5612;51.134;17.058;2023-04-06T00:23:23;0.70;99.90
2611;DHT22;5612;51.134;17.058;2023-04-06T00:25:52;0.70;99.90
2611;DHT22;5612;51.134;17.058;2023-04-06T00:28:21;0.60;99.90
2611;DHT22;5612;51.134;17.058;2023-04-06T00:30:52;0.60;57.40
2611;DHT22;5612;51.134;17.058;2023-04-06T00:33:24;0.50;99.90
2611;DHT22;5612;51.134;17.058;2023-04-06T00:35:52;0.30;99.90
2611;DHT22;5612;51.134;17.058;2023-04-06T00:38:21;0.30;1.00
2611;DHT22;5612;51.134;17.058;2023-04-06T00:40:50;0.30;1.00
2611;DHT22;5612;51.134;17.058;2023-04-06T00:43:19;0.20;1.00
2611;DHT22;5612;51.134;17.058;2023-04-06T00:45:48;0.20;1.00
2611;DHT22;5612;51.134;17.058;2023-04-06T00:48:16;0.20;1.00
2611;DHT22;5612;51.134;17.058;2023-04-06T00:50:46;0.20;1.00
2611;DHT22;5612;51.134;17.058;2023-04-06T00:53:15;0.20;1.00
2611;DHT22;5612;51.134;17.058;2023-04-06T00:55:44;0.20;1.00
2611;DHT22;5612;51.134;17.058;2023-04-06T00:58:13;0.20;1.00
2611;DHT22;5612;51.134;17.058;2023-04-06T01:00:42;0.20;1.00
2611;DHT22;5612;51.134;17.058;2023-04-06T01:03:11;0.30;1.00
2611;DHT22;5612;51.134;17.058;2023-04-06T01:05:39;0.30;1.00
2611;DHT22;5612;51.134;17.058;2023-04-06T01:08:11;0.20;1.00
2611;DHT22;5612;51.134;17.058;2023-04-06T01:10:40;0.20;1.00
2611;DHT22;5612;51.134;17.058;2023-04-06T01:13:08;0.20;1.00
2611;DHT22;5612;51.134;17.058;2023-04-06T01:15:37;0.20;1.00
2611;DHT22;5612;51.134;17.058;2023-04-06T01:18:07;0.20;1.00
2611;DHT22;5612;51.134;17.058;2023-04-06T01:20:37;0.20;1.00
2611;DHT22;5612;51.134;17.058;2023-04-06T01:23:07;0.20;1.00
2611;DHT22;5612;51.134;17.058;2023-04-06T01:25:36;0.20;1.00
2611;DHT22;5612;51.134;17.058;2023-04-06T01:28:05;0.20;1.00
2611;DHT22;5612;51.134;17.058;2023-04-06T01:30:33;0.20;1.00
2611;DHT22;5612;51.134;17.058;2023-04-06T01:33:02;0.10;1.00
2611;DHT22;5612;51.134;17.058;2023-04-06T01:35:31;0.10;1.00
2611;DHT22;5612;51.134;17.058;2023-04-06T01:38:00;0.10;1.00
2611;DHT22;5612;51.134;17.058;2023-04-06T01:40:30;0.10;1.00
2611;DHT22;5612;51.134;17.058;2023-04-06T01:42:59;0.10;1.00
2611;DHT22;5612;51.134;17.058;2023-04-06T01:45:27;0.10;1.00
2611;DHT22;5612;51.134;17.058;2023-04-06T01:47:56;0.10;99.90
2611;DHT22;5612;51.134;17.058;2023-04-06T01:50:25;0.00;1.00
2611;DHT22;5612;51.134;17.058;2023-04-06T01:52:54;0.00;1.00
2611;DHT22;5612;51.134;17.058;2023-04-06T01:55:23;0.00;1.00
2611;DHT22;5612;51.134;17.058;2023-04-06T01:57:53;-0.10;1.00
2611;DHT22;5612;51.134;17.058;2023-04-06T02:00:21;-0.10;1.00
2611;DHT22;5612;51.134;17.058;2023-04-06T02:02:50;0.00;99.90
2611;DHT22;5612;51.134;17.058;2023-04-06T02:05:19;-0.10;1.00
2611;DHT22;5612;51.134;17.058;2023-04-06T02:07:48;-0.10;1.00
2611;DHT22;5612;51.134;17.058;2023-04-06T02:10:17;-0.20;1.00
2611;DHT22;5612;51.134;17.058;2023-04-06T02:12:46;-0.20;1.00
2611;DHT22;5612;51.134;17.058;2023-04-06T02:15:16;-0.20;1.00
2611;DHT22;5612;51.134;17.058;2023-04-06T02:17:45;-0.10;99.90
2611;DHT22;5612;51.134;17.058;2023-04-06T02:20:13;-0.20;99.90
2611;DHT22;5612;51.134;17.058;2023-04-06T02:22:42;-0.30;99.90
2611;DHT22;5612;51.134;17.058;2023-04-06T02:25:11;-0.30;99.90
2611;DHT22;5612;51.134;17.058;2023-04-06T02:27:40;-0.30;99.90
2611;DHT22;5612;51.134;17.058;2023-04-06T02:30:09;-0.30;99.90
2611;DHT22;5612;51.134;17.058;2023-04-06T02:32:40;-0.20;99.90
2611;DHT22;5612;51.134;17.058;2023-04-06T02:35:09;-0.30;99.90
2611;DHT22;5612;51.134;17.058;2023-04-06T02:37:37;-0.30;99.90
2611;DHT22;5612;51.134;17.058;2023-04-06T02:40:07;-0.40;99.90
2611;DHT22;5612;51.134;17.058;2023-04-06T02:42:36;-0.40;1.00
2611;DHT22;5612;51.134;17.058;2023-04-06T02:45:06;-0.40;1.00
2611;DHT22;5612;51.134;17.058;2023-04-06T02:47:35;-0.40;1.00
2611;DHT22;5612;51.134;17.058;2023-04-06T02:50:05;-0.40;1.00
2611;DHT22;5612;51.134;17.058;2023-04-06T02:52:34;-0.50;1.00
2611;DHT22;5612;51.134;17.058;2023-04-06T02:55:03;-0.40;1.00
2611;DHT22;5612;51.134;17.058;2023-04-06T02:57:34;-0.40;1.00
2611;DHT22;5612;51.134;17.058;2023-04-06T03:00:04;-0.50;1.00
2611;DHT22;5612;51.134;17.058;2023-04-06T03:02:33;-0.50;1.00
2611;DHT22;5612;51.134;17.058;2023-04-06T03:05:04;-0.50;1.00
2611;DHT22;5612;51.134;17.058;2023-04-06T03:07:33;-0.50;1.00
2611;DHT22;5612;51.134;17.058;2023-04-06T03:10:02;-0.50;1.00
2611;DHT22;5612;51.134;17.058;2023-04-06T03:12:31;-0.50;1.00
2611;DHT22;5612;51.134;17.058;2023-04-06T03:14:59;-0.50;1.00
2611;DHT22;5612;51.134;17.058;2023-04-06T03:17:28;-0.50;99.90
2611;DHT22;5612;51.134;17.058;2023-04-06T03:19:57;-0.50;99.90
2611;DHT22;5612;51.134;17.058;2023-04-06T03:22:28;-0.50;99.90
2611;DHT22;5612;51.134;17.058;2023-04-06T03:24:57;-0.50;99.90
2611;DHT22;5612;51.134;17.058;2023-04-06T03:27:29;-0.60;99.90
2611;DHT22;5612;51.134;17.058;2023-04-06T03:29:57;-0.60;99.90
2611;DHT22;5612;51.134;17.058;2023-04-06T03:32:26;-0.60;99.90
2611;DHT22;5612;51.134;17.058;2023-04-06T03:34:54;-0.60;99.90
2611;DHT22;5612;51.134;17.058;2023-04-06T03:37:23;-0.60;99.90
2611;DHT22;5612;51.134;17.058;2023-04-06T03:39:53;-0.60;99.90
2611;DHT22;5612;51.134;17.058;2023-04-06T03:42:22;-0.70;99.90
2611;DHT22;5612;51.134;17.058;2023-04-06T03:44:51;-0.70;99.90
2611;DHT22;5612;51.134;17.058;2023-04-06T03:47:20;-0.70;99.90
2611;DHT22;5612;51.134;17.058;2023-04-06T03:49:49;-0.80;99.90
2611;DHT22;5612;51.134;17.058;2023-04-06T03:52:20;-0.80;99.90
2611;DHT22;5612;51.134;17.058;2023-04-06T03:54:50;-0.80;99.90
2611;DHT22;5612;51.134;17.058;2023-04-06T03:57:20;-0.80;1.00
2611;DHT22;5612;51.134;17.058;2023-04-06T03:59:48;-0.80;1.00
2611;DHT22;5612;51.134;17.058;2023-04-06T04:02:17;-0.80;99.90
2611;DHT22;5612;51.134;17.058;2023-04-06T04:04:46;-0.80;99.90
2611;DHT22;5612;51.134;17.058;2023-04-06T04:07:15;-0.80;99.90
2611;DHT22;5612;51.134;17.058;2023-04-06T04:09:43;-0.80;99.90
2611;DHT22;5612;51.134;17.058;2023-04-06T04:12:12;-0.80;99.90
2611;DHT22;5612;51.134;17.058;2023-04-06T04:14:43;-0.90;1.00
2611;DHT22;5612;51.134;17.058;2023-04-06T04:17:12;-0.90;99.90
2611;DHT22;5612;51.134;17.058;2023-04-06T04:19:40;-0.90;99.90
2611;DHT22;5612;51.134;17.058;2023-04-06T04:22:09;-0.90;99.90
2611;DHT22;5612;51.134;17.058;2023-04-06T04:24:38;-0.90;99.90
2611;DHT22;5612;51.134;17.058;2023-04-06T04:27:06;-0.90;99.90
2611;DHT22;5612;51.134;17.058;2023-04-06T04:29:35;-0.90;99.90
2611;DHT22;5612;51.134;17.058;2023-04-06T04:32:05;-0.90;99.90
2611;DHT22;5612;51.134;17.058;2023-04-06T04:34:34;-0.90;99.90
2611;DHT22;5612;51.134;17.058;2023-04-06T04:37:02;-1.00;99.90
2611;DHT22;5612;51.134;17.058;2023-04-06T04:39:34;-0.90;1.00
2611;DHT22;5612;51.134;17.058;2023-04-06T04:42:03;-0.90;1.00
2611;DHT22;5612;51.134;17.058;2023-04-06T04:44:34;-0.90;1.00
2611;DHT22;5612;51.134;17.058;2023-04-06T04:47:05;-0.80;1.00
2611;DHT22;5612;51.134;17.058;2023-04-06T04:49:33;-0.80;1.00
2611;DHT22;5612;51.134;17.058;2023-04-06T04:52:02;-0.70;1.00
2611;DHT22;5612;51.134;17.058;2023-04-06T04:54:31;-0.70;1.00
2611;DHT22;5612;51.134;17.058;2023-04-06T04:56:59;-0.70;1.00
2611;DHT22;5612;51.134;17.058;2023-04-06T04:59:28;-0.60;1.00
2611;DHT22;5612;51.134;17.058;2023-04-06T05:01:57;-0.60;1.00
2611;DHT22;5612;51.134;17.058;2023-04-06T05:04:28;-0.50;1.00
2611;DHT22;5612;51.134;17.058;2023-04-06T05:07:04;-0.40;1.00
2611;DHT22;5612;51.134;17.058;2023-04-06T05:09:33;-0.30;1.00
2611;DHT22;5612;51.134;17.058;2023-04-06T05:12:02;-0.30;99.90
2611;DHT22;5612;51.134;17.058;2023-04-06T05:14:30;-0.20;1.00
2611;DHT22;5612;51.134;17.058;2023-04-06T05:16:59;-0.20;1.00
2611;DHT22;5612;51.134;17.058;2023-04-06T05:19:29;-0.10;1.00
2611;DHT22;5612;51.134;17.058;2023-04-06T05:21:58;-0.20;1.00
2611;DHT22;5612;51.134;17.058;2023-04-06T05:24:27;-0.10;1.00
2611;DHT22;5612;51.134;17.058;2023-04-06T05:26:55;0.00;1.00
2611;DHT22;5612;51.134;17.058;2023-04-06T05:29:24;0.10;1.00
2611;DHT22;5612;51.134;17.058;2023-04-06T05:31:53;0.10;1.00
2611;DHT22;5612;51.134;17.058;2023-04-06T05:34:22;0.20;1.00
2611;DHT22;5612;51.134;17.058;2023-04-06T05:36:52;0.40;1.00
2611;DHT22;5612;51.134;17.058;2023-04-06T05:39:21;0.50;1.00
2611;DHT22;5612;51.134;17.058;2023-04-06T05:41:49;0.50;99.90
2611;DHT22;5612;51.134;17.058;2023-04-06T05:44:18;0.70;99.90
2611;DHT22;5612;51.134;17.058;2023-04-06T05:46:47;0.80;99.90
2611;DHT22;5612;51.134;17.058;2023-04-06T05:49:16;0.80;34.90
2611;DHT22;5612;51.134;17.058;2023-04-06T05:51:44;1.00;99.90
2611;DHT22;5612;51.134;17.058;2023-04-06T05:54:15;1.10;99.90
2611;DHT22;5612;51.134;17.058;2023-04-06T05:56:43;1.20;99.90
2611;DHT22;5612;51.134;17.058;2023-04-06T05:59:15;1.40;1.00
2611;DHT22;5612;51.134;17.058;2023-04-06T06:01:44;1.50;99.90
2611;DHT22;5612;51.134;17.058;2023-04-06T06:04:12;1.50;1.00
2611;DHT22;5612;51.134;17.058;2023-04-06T06:06:41;1.60;1.00
2611;DHT22;5612;51.134;17.058;2023-04-06T06:09:10;1.70;99.90
2611;DHT22;5612;51.134;17.058;2023-04-06T06:11:40;1.90;99.90
2611;DHT22;5612;51.134;17.058;2023-04-06T06:14:09;2.00;99.90
2611;DHT22;5612;51.134;17.058;2023-04-06T06:16:37;2.10;99.90
2611;DHT22;5612;51.134;17.058;2023-04-06T06:19:06;2.20;1.00
2611;DHT22;5612;51.134;17.058;2023-04-06T06:21:35;2.30;1.00
2611;DHT22;5612;51.134;17.058;2023-04-06T06:24:04;2.30;1.00
2611;DHT22;5612;51.134;17.058;2023-04-06T06:26:33;2.30;99.90
2611;DHT22;5612;51.134;17.058;2023-04-06T06:29:05;2.50;99.90
2611;DHT22;5612;51.134;17.058;2023-04-06T06:31:35;2.60;99.90
2611;DHT22;5612;51.134;17.058;2023-04-06T06:34:04;2.70;99.90
2611;DHT22;5612;51.134;17.058;2023-04-06T06:36:33;2.70;99.90
2611;DHT22;5612;51.134;17.058;2023-04-06T06:39:02;2.90;99.90
2611;DHT22;5612;51.134;17.058;2023-04-06T06:41:31;3.30;99.90
2611;DHT22;5612;51.134;17.058;2023-04-06T06:44:00;3.80;99.90
2611;DHT22;5612;51.134;17.058;2023-04-06T06:46:30;4.10;44.70
2611;DHT22;5612;51.134;17.058;2023-04-06T06:48:59;4.60;23.20
2611;DHT22;5612;51.134;17.058;2023-04-06T06:51:28;5.70;21.00
2611;DHT22;5612;51.134;17.058;2023-04-06T06:53:57;6.70;1.00
2611;DHT22;5612;51.134;17.058;2023-04-06T06:56:26;7.40;1.00
2611;DHT22;5612;51.134;17.058;2023-04-06T06:58:55;8.50;1.00
2611;DHT22;5612;51.134;17.058;2023-04-06T07:01:23;9.40;1.00
2611;DHT22;5612;51.134;17.058;2023-04-06T07:03:54;9.80;1.00
2611;DHT22;5612;51.134;17.058;2023-04-06T07:06:22;10.60;1.00
2611;DHT22;5612;51.134;17.058;2023-04-06T07:08:51;11.00;1.00
2611;DHT22;5612;51.134;17.058;2023-04-06T07:11:20;11.00;1.00
2611;DHT22;5612;51.134;17.058;2023-04-06T07:13:49;11.80;1.00
2611;DHT22;5612;51.134;17.058;2023-04-06T07:16:18;12.20;1.00
2611;DHT22;5612;51.134;17.058;2023-04-06T07:18:47;11.70;1.00
2611;DHT22;5612;51.134;17.058;2023-04-06T07:21:18;11.50;1.00
2611;DHT22;5612;51.134;17.058;2023-04-06T07:23:48;12.20;1.00
2611;DHT22;5612;51.134;17.058;2023-04-06T07:26:18;12.70;1.00
2611;DHT22;5612;51.134;17.058;2023-04-06T07:28:47;13.40;1.00
2611;DHT22;5612;51.134;17.058;2023-04-06T07:31:15;13.60;1.00
2611;DHT22;5612;51.134;17.058;2023-04-06T07:33:44;14.40;1.00
2611;DHT22;5612;51.134;17.058;2023-04-06T07:36:14;15.30;1.00
2611;DHT22;5612;51.134;17.058;2023-04-06T07:38:44;16.00;1.00
2611;DHT22;5612;51.134;17.058;2023-04-06T07:41:14;16.30;1.00
2611;DHT22;5612;51.134;17.058;2023-04-06T07:43:44;16.80;1.00
2611;DHT22;5612;51.134;17.058;2023-04-06T07:46:12;17.10;1.00
2611;DHT22;5612;51.134;17.058;2023-04-06T07:48:41;17.60;1.00
2611;DHT22;5612;51.134;17.058;2023-04-06T07:51:10;18.10;1.00
2611;DHT22;5612;51.134;17.058;2023-04-06T07:53:41;17.80;1.00
2611;DHT22;5612;51.134;17.058;2023-04-06T07:56:11;18.50;1.00
2611;DHT22;5612;51.134;17.058;2023-04-06T07:58:40;18.20;1.00
2611;DHT22;5612;51.134;17.058;2023-04-06T08:01:09;18.60;1.00
2611;DHT22;5612;51.134;17.058;2023-04-06T08:03:38;18.60;1.00
2611;DHT22;5612;51.134;17.058;2023-04-06T08:06:07;19.60;1.00
2611;DHT22;5612;51.134;17.058;2023-04-06T08:08:36;19.10;1.00
2611;DHT22;5612;51.134;17.058;2023-04-06T08:11:05;19.10;1.00
2611;DHT22;5612;51.134;17.058;2023-04-06T08:13:35;19.30;1.00
2611;DHT22;5612;51.134;17.058;2023-04-06T08:16:05;19.60;1.00
2611;DHT22;5612;51.134;17.058;2023-04-06T08:18:33;19.80;1.00
2611;DHT22;5612;51.134;17.058;2023-04-06T08:21:02;20.30;1.00
2611;DHT22;5612;51.134;17.058;2023-04-06T08:23:31;20.70;1.00
2611;DHT22;5612;51.134;17.058;2023-04-06T08:26:00;20.50;1.00
2611;DHT22;5612;51.134;17.058;2023-04-06T08:28:28;20.90;1.00
2611;DHT22;5612;51.134;17.058;2023-04-06T08:30:59;20.90;1.00
2611;DHT22;5612;51.134;17.058;2023-04-06T08:33:27;21.00;1.00
2611;DHT22;5612;51.134;17.058;2023-04-06T08:35:56;21.50;1.00
2611;DHT22;5612;51.134;17.058;2023-04-06T08:38:25;22.20;1.00
2611;DHT22;5612;51.134;17.058;2023-04-06T08:40:54;22.10;1.00
2611;DHT22;5612;51.134;17.058;2023-04-06T08:43:23;22.20;1.00
2611;DHT22;5612;51.134;17.058;2023-04-06T08:45:53;22.30;1.00
2611;DHT22;5612;51.134;17.058;2023-04-06T08:48:24;23.00;1.00
2611;DHT22;5612;51.134;17.058;2023-04-06T08:50:53;23.00;1.00
2611;DHT22;5612;51.134;17.058;2023-04-06T08:53:23;23.00;1.00
2611;DHT22;5612;51.134;17.058;2023-04-06T08:55:52;23.30;1.00
2611;DHT22;5612;51.134;17.058;2023-04-06T08:58:21;23.20;1.00
2611;DHT22;5612;51.134;17.058;2023-04-06T09:01:06;24.30;1.00
2611;DHT22;5612;51.134;17.058;2023-04-06T09:03:39;24.40;1.00
2611;DHT22;5612;51.134;17.058;2023-04-06T09:06:09;24.60;1.00
2611;DHT22;5612;51.134;17.058;2023-04-06T09:08:39;24.30;1.00
2611;DHT22;5612;51.134;17.058;2023-04-06T09:11:09;23.30;1.00
2611;DHT22;5612;51.134;17.058;2023-04-06T09:13:48;22.80;1.00
2611;DHT22;5612;51.134;17.058;2023-04-06T09:16:18;23.40;1.00
2611;DHT22;5612;51.134;17.058;2023-04-06T09:18:49;23.80;1.00
2611;DHT22;5612;51.134;17.058;2023-04-06T09:21:18;22.90;1.00
2611;DHT22;5612;51.134;17.058;2023-04-06T09:23:58;23.00;1.00
2611;DHT22;5612;51.134;17.058;2023-04-06T09:26:28;24.60;1.00
2611;DHT22;5612;51.134;17.058;2023-04-06T09:28:58;24.10;1.00
2611;DHT22;5612;51.134;17.058;2023-04-06T09:31:29;23.20;1.00
2611;DHT22;5612;51.134;17.058;2023-04-06T09:34:02;22.70;1.00
2611;DHT22;5612;51.134;17.058;2023-04-06T09:36:31;23.30;1.00
2611;DHT22;5612;51.134;17.058;2023-04-06T09:39:01;23.10;1.00
2611;DHT22;5612;51.134;17.058;2023-04-06T09:41:32;23.20;1.00
2611;DHT22;5612;51.134;17.058;2023-04-06T09:44:03;23.00;1.00
2611;DHT22;5612;51.134;17.058;2023-04-06T09:46:34;23.70;1.00
2611;DHT22;5612;51.134;17.058;2023-04-06T09:49:24;23.90;1.00
2611;DHT22;5612;51.134;17.058;2023-04-06T09:51:55;23.40;1.00
2611;DHT22;5612;51.134;17.058;2023-04-06T09:54:29;22.50;1.00
2611;DHT22;5612;51.134;17.058;2023-04-06T09:57:04;22.10;1.00
2611;DHT22;5612;51.134;17.058;2023-04-06T09:59:43;22.10;1.00
2611;DHT22;5612;51.134;17.058;2023-04-06T10:02:18;22.90;1.00
2611;DHT22;5612;51.134;17.058;2023-04-06T10:04:55;23.00;1.00
2611;DHT22;5612;51.134;17.058;2023-04-06T10:07:26;23.40;1.00
2611;DHT22;5612;51.134;17.058;2023-04-06T10:09:56;24.10;1.00
2611;DHT22;5612;51.134;17.058;2023-04-06T10:12:27;23.70;1.00
2611;DHT22;5612;51.134;17.058;2023-04-06T10:14:57;25.50;1.00
2611;DHT22;5612;51.134;17.058;2023-04-06T10:17:26;26.40;1.00
2611;DHT22;5612;51.134;17.058;2023-04-06T10:20:02;26.30;1.00
2611;DHT22;5612;51.134;17.058;2023-04-06T10:22:36;26.60;1.00
2611;DHT22;5612;51.134;17.058;2023-04-06T10:25:08;24.40;1.00
2611;DHT22;5612;51.134;17.058;2023-04-06T10:27:38;23.50;1.00
2611;DHT22;5612;51.134;17.058;2023-04-06T10:30:08;21.10;1.00
2611;DHT22;5612;51.134;17.058;2023-04-06T10:32:38;19.30;1.00
2611;DHT22;5612;51.134;17.058;2023-04-06T10:35:11;20.00;1.00
2611;DHT22;5612;51.134;17.058;2023-04-06T10:37:50;21.30;1.00
2611;DHT22;5612;51.134;17.058;2023-04-06T10:40:23;23.30;1.00
2611;DHT22;5612;51.134;17.058;2023-04-06T10:42:55;25.00;1.00
2611;DHT22;5612;51.134;17.058;2023-04-06T10:45:25;25.70;1.00
2611;DHT22;5612;51.134;17.058;2023-04-06T10:47:56;26.80;1.00
2611;DHT22;5612;51.134;17.058;2023-04-06T10:50:28;27.00;1.00
2611;DHT22;5612;51.134;17.058;2023-04-06T10:52:59;27.40;1.00
2611;DHT22;5612;51.134;17.058;2023-04-06T10:55:30;27.50;1.00
2611;DHT22;5612;51.134;17.058;2023-04-06T10:58:00;25.50;1.00
2611;DHT22;5612;51.134;17.058;2023-04-06T11:00:29;23.50;1.00
2611;DHT22;5612;51.134;17.058;2023-04-06T11:03:15;21.40;1.00
2611;DHT22;5612;51.134;17.058;2023-04-06T11:05:47;20.60;1.00
2611;DHT22;5612;51.134;17.058;2023-04-06T11:08:25;21.90;1.00
2611;DHT22;5612;51.134;17.058;2023-04-06T11:11:06;23.00;1.00
2611;DHT22;5612;51.134;17.058;2023-04-06T11:13:40;24.70;1.00
2611;DHT22;5612;51.134;17.058;2023-04-06T11:16:15;25.20;1.00
2611;DHT22;5612;51.134;17.058;2023-04-06T11:18:54;25.30;1.00
2611;DHT22;5612;51.134;17.058;2023-04-06T11:21:35;25.40;1.00
2611;DHT22;5612;51.134;17.058;2023-04-06T11:24:08;25.50;1.00
2611;DHT22;5612;51.134;17.058;2023-04-06T11:26:40;25.60;1.00
2611;DHT22;5612;51.134;17.058;2023-04-06T11:29:11;25.50;1.00
2611;DHT22;5612;51.134;17.058;2023-04-06T11:31:44;25.70;1.00
2611;DHT22;5612;51.134;17.058;2023-04-06T11:34:17;24.90;1.00
2611;DHT22;5612;51.134;17.058;2023-04-06T11:36:53;23.30;1.00
2611;DHT22;5612;51.134;17.058;2023-04-06T11:39:25;22.10;1.00
2611;DHT22;5612;51.134;17.058;2023-04-06T11:41:58;22.10;1.00
2611;DHT22;5612;51.134;17.058;2023-04-06T11:44:33;22.40;1.00
2611;DHT22;5612;51.134;17.058;2023-04-06T11:47:06;22.40;1.00
2611;DHT22;5612;51.134;17.058;2023-04-06T11:49:38;22.90;1.00
2611;DHT22;5612;51.134;17.058;2023-04-06T11:52:17;24.10;1.00
2611;DHT22;5612;51.134;17.058;2023-04-06T11:54:47;24.70;1.00
2611;DHT22;5612;51.134;17.058;2023-04-06T11:57:18;26.10;1.00
2611;DHT22;5612;51.134;17.058;2023-04-06T11:59:48;27.20;1.00
2611;DHT22;5612;51.134;17.058;2023-04-06T12:02:18;27.40;1.00
2611;DHT22;5612;51.134;17.058;2023-04-06T12:04:49;26.70;1.00
2611;DHT22;5612;51.134;17.058;2023-04-06T12:07:20;26.20;1.00
2611;DHT22;5612;51.134;17.058;2023-04-06T12:09:50;26.20;1.00
2611;DHT22;5612;51.134;17.058;2023-04-06T12:12:19;25.80;1.00
2611;DHT22;5612;51.134;17.058;2023-04-06T12:14:49;25.50;1.00
2611;DHT22;5612;51.134;17.058;2023-04-06T12:17:19;26.10;1.00
2611;DHT22;5612;51.134;17.058;2023-04-06T12:19:50;25.80;1.00
2611;DHT22;5612;51.134;17.058;2023-04-06T12:22:22;27.00;1.00
2611;DHT22;5612;51.134;17.058;2023-04-06T12:24:51;27.30;1.00
2611;DHT22;5612;51.134;17.058;2023-04-06T12:27:21;26.90;1.00
2611;DHT22;5612;51.134;17.058;2023-04-06T12:29:51;26.20;1.00
2611;DHT22;5612;51.134;17.058;2023-04-06T12:32:21;25.40;1.00
2611;DHT22;5612;51.134;17.058;2023-04-06T12:34:52;25.40;1.00
2611;DHT22;5612;51.134;17.058;2023-04-06T12:37:24;25.70;1.00
2611;DHT22;5612;51.134;17.058;2023-04-06T12:39:54;25.90;1.00
2611;DHT22;5612;51.134;17.058;2023-04-06T12:42:24;25.00;1.00
2611;DHT22;5612;51.134;17.058;2023-04-06T12:44:54;24.90;1.00
2611;DHT22;5612;51.134;17.058;2023-04-06T12:47:25;24.40;1.00
2611;DHT22;5612;51.134;17.058;2023-04-06T12:49:55;24.30;1.00
2611;DHT22;5612;51.134;17.058;2023-04-06T12:52:26;24.40;1.00
2611;DHT22;5612;51.134;17.058;2023-04-06T12:54:58;24.60;1.00
2611;DHT22;5612;51.134;17.058;2023-04-06T12:57:28;25.40;1.00
2611;DHT22;5612;51.134;17.058;2023-04-06T12:59:59;25.10;1.00
2611;DHT22;5612;51.134;17.058;2023-04-06T13:02:29;24.40;1.00
2611;DHT22;5612;51.134;17.058;2023-04-06T13:04:59;24.40;1.00
2611;DHT22;5612;51.134;17.058;2023-04-06T13:07:30;25.00;1.00
2611;DHT22;5612;51.134;17.058;2023-04-06T13:10:00;25.20;1.00
2611;DHT22;5612;51.134;17.058;2023-04-06T13:12:30;26.30;1.00
2611;DHT22;5612;51.134;17.058;2023-04-06T13:15:01;26.40;1.00
2611;DHT22;5612;51.134;17.058;2023-04-06T13:17:30;26.40;1.00
2611;DHT22;5612;51.134;17.058;2023-04-06T13:20:00;26.40;1.00
2611;DHT22;5612;51.134;17.058;2023-04-06T13:22:33;25.40;1.00
2611;DHT22;5612;51.134;17.058;2023-04-06T13:25:03;24.60;1.00
2611;DHT22;5612;51.134;17.058;2023-04-06T13:27:33;24.40;1.00
2611;DHT22;5612;51.134;17.058;2023-04-06T13:30:04;23.50;1.00
2611;DHT22;5612;51.134;17.058;2023-04-06T13:32:34;22.80;1.00
2611;DHT22;5612;51.134;17.058;2023-04-06T13:35:05;22.10;1.00
2611;DHT22;5612;51.134;17.058;2023-04-06T13:37:37;21.50;1.00
2611;DHT22;5612;51.134;17.058;2023-04-06T13:40:08;21.60;1.00
2611;DHT22;5612;51.134;17.058;2023-04-06T13:42:38;22.10;1.00
2611;DHT22;5612;51.134;17.058;2023-04-06T13:45:10;22.40;1.00
2611;DHT22;5612;51.134;17.058;2023-04-06T13:47:40;22.90;1.00
2611;DHT22;5612;51.134;17.058;2023-04-06T13:50:10;23.20;1.00
2611;DHT22;5612;51.134;17.058;2023-04-06T13:52:41;23.20;1.00
2611;DHT22;5612;51.134;17.058;2023-04-06T13:55:11;23.60;1.00
2611;DHT22;5612;51.134;17.058;2023-04-06T13:57:41;23.10;1.00
2611;DHT22;5612;51.134;17.058;2023-04-06T14:00:12;23.50;1.00
2611;DHT22;5612;51.134;17.058;2023-04-06T14:02:43;23.10;1.00
2611;DHT22;5612;51.134;17.058;2023-04-06T14:05:14;22.90;1.00
2611;DHT22;5612;51.134;17.058;2023-04-06T14:07:45;21.90;1.00
2611;DHT22;5612;51.134;17.058;2023-04-06T14:10:15;21.40;1.00
2611;DHT22;5612;51.134;17.058;2023-04-06T14:12:45;21.10;1.00
2611;DHT22;5612;51.134;17.058;2023-04-06T14:15:15;20.50;1.00
2611;DHT22;5612;51.134;17.058;2023-04-06T14:17:45;20.30;1.00
2611;DHT22;5612;51.134;17.058;2023-04-06T14:20:15;20.80;1.00
2611;DHT22;5612;51.134;17.058;2023-04-06T14:22:46;21.50;1.00
2611;DHT22;5612;51.134;17.058;2023-04-06T14:25:17;21.90;1.00
2611;DHT22;5612;51.134;17.058;2023-04-06T14:27:48;22.10;1.00
2611;DHT22;5612;51.134;17.058;2023-04-06T14:30:18;21.70;1.00
2611;DHT22;5612;51.134;17.058;2023-04-06T14:32:48;21.70;1.00
2611;DHT22;5612;51.134;17.058;2023-04-06T14:35:18;21.90;1.00
2611;DHT22;5612;51.134;17.058;2023-04-06T14:37:49;22.40;1.00
2611;DHT22;5612;51.134;17.058;2023-04-06T14:40:19;22.00;1.00
2611;DHT22;5612;51.134;17.058;2023-04-06T14:42:49;21.70;1.00
2611;DHT22;5612;51.134;17.058;2023-04-06T14:45:19;21.90;1.00
2611;DHT22;5612;51.134;17.058;2023-04-06T14:47:50;21.70;1.00
2611;DHT22;5612;51.134;17.058;2023-04-06T14:50:20;21.30;1.00
2611;DHT22;5612;51.134;17.058;2023-04-06T14:52:51;21.80;1.00
2611;DHT22;5612;51.134;17.058;2023-04-06T14:55:22;22.20;1.00
2611;DHT22;5612;51.134;17.058;2023-04-06T14:57:52;21.90;1.00
2611;DHT22;5612;51.134;17.058;2023-04-06T15:00:22;21.60;1.00
2611;DHT22;5612;51.134;17.058;2023-04-06T15:02:52;21.60;1.00
2611;DHT22;5612;51.134;17.058;2023-04-06T15:05:22;21.60;1.00
2611;DHT22;5612;51.134;17.058;2023-04-06T15:07:53;21.40;1.00
2611;DHT22;5612;51.134;17.058;2023-04-06T15:10:23;21.00;1.00
2611;DHT22;5612;51.134;17.058;2023-04-06T15:12:52;20.90;1.00
2611;DHT22;5612;51.134;17.058;2023-04-06T15:15:22;21.20;1.00
2611;DHT22;5612;51.134;17.058;2023-04-06T15:17:52;20.80;1.00
2611;DHT22;5612;51.134;17.058;2023-04-06T15:20:22;20.00;1.00
2611;DHT22;5612;51.134;17.058;2023-04-06T15:22:53;19.60;1.00
2611;DHT22;5612;51.134;17.058;2023-04-06T15:25:23;19.30;1.00
2611;DHT22;5612;51.134;17.058;2023-04-06T15:27:54;19.10;1.00
2611;DHT22;5612;51.134;17.058;2023-04-06T15:30:25;18.70;1.00
2611;DHT22;5612;51.134;17.058;2023-04-06T15:32:57;18.60;1.00
2611;DHT22;5612;51.134;17.058;2023-04-06T15:35:29;18.40;1.00
2611;DHT22;5612;51.134;17.058;2023-04-06T15:38:00;18.00;1.00
2611;DHT22;5612;51.134;17.058;2023-04-06T15:40:30;17.90;1.00
2611;DHT22;5612;51.134;17.058;2023-04-06T15:43:00;17.20;1.00
2611;DHT22;5612;51.134;17.058;2023-04-06T15:45:30;16.90;1.00
2611;DHT22;5612;51.134;17.058;2023-04-06T15:47:59;16.90;1.00
2611;DHT22;5612;51.134;17.058;2023-04-06T15:50:32;16.90;1.00
2611;DHT22;5612;51.134;17.058;2023-04-06T15:53:03;16.70;1.00
2611;DHT22;5612;51.134;17.058;2023-04-06T15:55:34;16.70;1.00
2611;DHT22;5612;51.134;17.058;2023-04-06T15:58:04;16.00;1.00
2611;DHT22;5612;51.134;17.058;2023-04-06T16:00:34;15.50;1.00
2611;DHT22;5612;51.134;17.058;2023-04-06T16:03:04;14.90;1.00
2611;DHT22;5612;51.134;17.058;2023-04-06T16:05:34;14.30;1.00
2611;DHT22;5612;51.134;17.058;2023-04-06T16:08:26;14.00;1.00
2611;DHT22;5612;51.134;17.058;2023-04-06T16:10:55;14.10;1.00
2611;DHT22;5612;51.134;17.058;2023-04-06T16:13:25;13.90;1.00
2611;DHT22;5612;51.134;17.058;2023-04-06T16:15:54;13.40;1.00
2611;DHT22;5612;51.134;17.058;2023-04-06T16:18:24;13.00;1.00
2611;DHT22;5612;51.134;17.058;2023-04-06T16:20:54;12.90;1.00